Terminal Aerodrome Forecast
Issued by NWS

Home | Current Version | Previous Version | Text Only | Print | Product List | Glossary Off
Versions: 1 2 3 4 5 6 7 8 9 10 11 12 13

000
FTUS43 KICT 180520
TAFRSL
TAF
KRSL 180520Z 1806/1906 18007KT P6SM VCTS BKN080CB
      TEMPO 1806/1809 VRB25G35KT 5SM TSRA SCT040 BKN070CB
     FM181000 14008KT P6SM BKN250
     FM181300 21010KT P6SM SCT250
     FM181800 36008KT P6SM SCT250
     FM190000 04005KT P6SM SCT250=

USA.gov is the U.S. government's official web portal to all federal, state and local government web resources and services.